createdAt,value
2023-04-05T00:00:11.123Z,-2.32
2023-04-05T00:02:40.810Z,-2.34
2023-04-05T00:05:09.086Z,-2.36
2023-04-05T00:07:36.801Z,-2.37
2023-04-05T00:10:06.113Z,-2.43
2023-04-05T00:12:33.843Z,-2.46
2023-04-05T00:15:01.540Z,-2.49
2023-04-05T00:17:29.740Z,-2.50
2023-04-05T00:19:58.005Z,-2.53
2023-04-05T00:22:26.859Z,-2.57
2023-04-05T00:24:54.567Z,-2.60
2023-04-05T00:27:23.750Z,-2.65
2023-04-05T00:29:51.428Z,-2.59
2023-04-05T00:32:19.187Z,-2.59
2023-04-05T00:34:46.960Z,-2.59
2023-04-05T00:37:14.652Z,-2.61
2023-04-05T00:39:42.434Z,-2.72
2023-04-05T00:42:10.165Z,-2.79
2023-04-05T00:44:39.281Z,-2.85
2023-04-05T00:47:07.522Z,-2.76
2023-04-05T00:49:35.986Z,-2.73
2023-04-05T00:52:04.036Z,-2.73
2023-04-05T00:54:31.736Z,-2.70
2023-04-05T00:57:00.315Z,-2.72
2023-04-05T00:59:28.979Z,-2.77
2023-04-05T01:02:02.002Z,-2.79
2023-04-05T01:04:31.775Z,-2.79
2023-04-05T01:07:05.630Z,-2.84
2023-04-05T01:09:46.824Z,-2.82
2023-04-05T01:12:18.329Z,-2.85
2023-04-05T01:14:50.177Z,-2.84
2023-04-05T01:17:22.532Z,-2.85
2023-04-05T01:19:53.429Z,-2.85
2023-04-05T01:22:44.797Z,-2.87
2023-04-05T01:25:30.803Z,-2.88
2023-04-05T01:28:14.111Z,-2.91
2023-04-05T01:30:45.488Z,-2.95
2023-04-05T01:33:16.553Z,-2.93
2023-04-05T01:35:49.307Z,-2.93
2023-04-05T01:38:19.280Z,-2.97
2023-04-05T01:40:47.282Z,-3.02
2023-04-05T01:43:15.302Z,-2.99
2023-04-05T01:45:44.763Z,-3.02
2023-04-05T01:48:12.688Z,-3.00
2023-04-05T01:50:40.764Z,-3.03
2023-04-05T01:53:08.728Z,-3.14
2023-04-05T01:55:36.378Z,-3.12
2023-04-05T01:58:04.185Z,-3.14
2023-04-05T02:00:31.825Z,-3.08
2023-04-05T02:03:01.249Z,-3.06
2023-04-05T02:05:29.038Z,-3.08
2023-04-05T02:07:56.746Z,-3.09
2023-04-05T02:10:24.456Z,-3.06
2023-04-05T02:12:52.345Z,-3.03
2023-04-05T02:15:20.084Z,-3.15
2023-04-05T02:17:47.786Z,-3.18
2023-04-05T02:20:18.514Z,-3.12
2023-04-05T02:22:46.254Z,-3.10
2023-04-05T02:25:14.015Z,-3.16
2023-04-05T02:27:42.061Z,-3.15
2023-04-05T02:30:10.573Z,-3.13
2023-04-05T02:32:38.332Z,-3.12
2023-04-05T02:35:06.746Z,-3.14
2023-04-05T02:37:36.116Z,-3.12
2023-04-05T02:40:05.414Z,-3.17
2023-04-05T02:42:33.251Z,-3.21
2023-04-05T02:45:01.333Z,-3.26
2023-04-05T02:47:29.082Z,-3.22
2023-04-05T02:49:56.797Z,-3.27
2023-04-05T02:52:24.464Z,-3.36
2023-04-05T02:54:53.575Z,-3.41
2023-04-05T02:57:21.367Z,-3.45
2023-04-05T02:59:49.054Z,-3.49
2023-04-05T03:02:16.766Z,-3.58
2023-04-05T03:04:44.966Z,-3.63
2023-04-05T03:07:14.516Z,-3.72
2023-04-05T03:09:43.123Z,-3.82
2023-04-05T03:12:12.180Z,-3.88
2023-04-05T03:14:40.140Z,-3.93
2023-04-05T03:17:07.774Z,-4.01
2023-04-05T03:19:35.663Z,-4.03
2023-04-05T03:22:03.302Z,-4.08
2023-04-05T03:24:31.255Z,-4.07
2023-04-05T03:27:02.805Z,-4.04
2023-04-05T03:29:31.884Z,-3.95
2023-04-05T03:31:59.931Z,-3.87
2023-04-05T03:34:28.851Z,-3.94
2023-04-05T03:36:56.693Z,-4.00
2023-04-05T03:39:24.424Z,-4.02
2023-04-05T03:41:52.106Z,-4.00
2023-04-05T03:44:19.773Z,-4.07
2023-04-05T03:46:48.960Z,-4.07
2023-04-05T03:49:16.713Z,-3.96
2023-04-05T03:51:44.383Z,-3.96
2023-04-05T03:54:12.089Z,-4.05
2023-04-05T03:56:39.808Z,-4.03
2023-04-05T03:59:07.520Z,-4.02
2023-04-05T04:01:37.073Z,-3.98
2023-04-05T04:04:06.191Z,-4.00
2023-04-05T04:06:33.884Z,-3.95
2023-04-05T04:09:01.593Z,-3.91
2023-04-05T04:11:29.318Z,-3.87
2023-04-05T04:13:57.027Z,-3.91
2023-04-05T04:16:28.869Z,-3.92
2023-04-05T04:18:57.023Z,-3.87
2023-04-05T04:21:26.040Z,-3.90
2023-04-05T04:23:53.862Z,-3.96
2023-04-05T04:26:29.241Z,-3.95
2023-04-05T04:28:57.005Z,-3.88
2023-04-05T04:31:25.142Z,-3.79
2023-04-05T04:33:53.403Z,-3.79
2023-04-05T04:36:35.215Z,-3.81
2023-04-05T04:39:06.799Z,-3.80
2023-04-05T04:41:36.054Z,-3.87
2023-04-05T04:44:04.390Z,-3.93
2023-04-05T04:46:34.846Z,-3.97
2023-04-05T04:49:05.772Z,-3.94
2023-04-05T04:51:33.606Z,-4.03
2023-04-05T04:54:01.708Z,-3.90
2023-04-05T04:56:33.206Z,-3.85
2023-04-05T04:59:00.952Z,-3.84
2023-04-05T05:01:28.725Z,-3.81
2023-04-05T05:03:56.863Z,-3.80
2023-04-05T05:06:24.639Z,-3.75
2023-04-05T05:08:52.326Z,-3.68
2023-04-05T05:11:20.921Z,-3.61
2023-04-05T05:13:52.657Z,-3.64
2023-04-05T05:16:21.864Z,-3.64
2023-04-05T05:18:49.590Z,-3.64
2023-04-05T05:21:17.238Z,-3.54
2023-04-05T05:23:44.848Z,-3.45
2023-04-05T05:26:14.523Z,-3.36
2023-04-05T05:28:42.240Z,-3.32
2023-04-05T05:31:12.246Z,-3.26
2023-04-05T05:33:40.004Z,-3.18
2023-04-05T05:36:08.198Z,-3.09
2023-04-05T05:38:36.198Z,-3.00
2023-04-05T05:41:03.924Z,-2.91
2023-04-05T05:43:31.609Z,-2.83
2023-04-05T05:46:01.684Z,-2.74
2023-04-05T05:48:31.010Z,-2.66
2023-04-05T05:51:01.723Z,-2.58
2023-04-05T05:53:29.353Z,-2.53
2023-04-05T05:55:57.012Z,-2.48
2023-04-05T05:58:24.770Z,-2.45
2023-04-05T06:00:54.168Z,-2.38
2023-04-05T06:03:22.089Z,-2.30
2023-04-05T06:05:54.358Z,-2.22
2023-04-05T06:08:22.057Z,-2.13
2023-04-05T06:10:49.799Z,-2.06
2023-04-05T06:13:17.449Z,-1.95
2023-04-05T06:15:45.224Z,-1.89
2023-04-05T06:18:13.032Z,-1.81
2023-04-05T06:20:43.151Z,-1.72
2023-04-05T06:23:12.276Z,-1.59
2023-04-05T06:25:40.412Z,-1.52
2023-04-05T06:28:08.577Z,-1.47
2023-04-05T06:30:36.635Z,-1.38
2023-04-05T06:33:04.398Z,-1.31
2023-04-05T06:35:32.355Z,-1.24
2023-04-05T06:38:00.205Z,-1.17
2023-04-05T06:40:29.353Z,-1.09
2023-04-05T06:42:56.970Z,-1.03
2023-04-05T06:45:24.655Z,-0.98
2023-04-05T06:47:52.401Z,-0.91
2023-04-05T06:50:23.267Z,-0.82
2023-04-05T06:52:51.003Z,-0.71
2023-04-05T06:55:18.765Z,-0.65
2023-04-05T06:57:47.816Z,-0.57
2023-04-05T07:00:17.396Z,-0.50
2023-04-05T07:02:45.086Z,-0.46
2023-04-05T07:05:12.816Z,-0.37
2023-04-05T07:07:41.012Z,-0.31
2023-04-05T07:10:09.390Z,-0.27
2023-04-05T07:12:37.023Z,-0.24
2023-04-05T07:15:06.814Z,-0.19
2023-04-05T07:17:34.521Z,-0.21
2023-04-05T07:20:02.200Z,-0.16
2023-04-05T07:22:29.870Z,-0.08
2023-04-05T07:24:57.625Z,-0.04
2023-04-05T07:27:25.232Z,0.01
2023-04-05T07:29:53.052Z,0.08
2023-04-05T07:32:22.178Z,0.14
2023-04-05T07:34:49.907Z,0.22
2023-04-05T07:37:17.589Z,0.31
2023-04-05T07:39:45.257Z,0.32
2023-04-05T07:42:12.912Z,0.43
2023-04-05T07:44:40.705Z,0.47
2023-04-05T07:47:08.311Z,0.52
2023-04-05T07:49:37.981Z,0.56
2023-04-05T07:52:06.281Z,0.60
2023-04-05T07:54:34.108Z,0.67
2023-04-05T07:57:02.746Z,0.73
2023-04-05T07:59:30.380Z,0.83
2023-04-05T08:02:02.134Z,0.83
2023-04-05T08:04:41.320Z,0.89
2023-04-05T08:07:08.999Z,0.99
2023-04-05T08:09:36.782Z,1.01
2023-04-05T08:12:04.559Z,1.10
2023-04-05T08:14:32.161Z,1.24
2023-04-05T08:16:59.848Z,1.30
2023-04-05T08:19:27.572Z,1.33
2023-04-05T08:21:56.746Z,1.32
2023-04-05T08:24:24.563Z,1.44
2023-04-05T08:26:52.330Z,1.49
2023-04-05T08:29:19.946Z,1.55
2023-04-05T08:31:47.865Z,1.60
2023-04-05T08:34:15.662Z,1.67
2023-04-05T08:36:43.489Z,1.78
2023-04-05T08:39:12.895Z,1.86
2023-04-05T08:41:42.449Z,2.01
2023-04-05T08:44:10.991Z,2.14
2023-04-05T08:46:38.918Z,2.20
2023-04-05T08:49:07.355Z,2.25
2023-04-05T08:51:35.389Z,2.32
2023-04-05T08:54:04.914Z,2.36
2023-04-05T08:56:34.881Z,2.39
2023-04-05T08:59:03.933Z,2.44
2023-04-05T09:01:32.174Z,2.47
2023-04-05T09:04:01.448Z,2.56
2023-04-05T09:06:29.656Z,2.63
2023-04-05T09:08:58.620Z,2.70
2023-04-05T09:11:26.357Z,2.75
2023-04-05T09:13:55.569Z,2.83
2023-04-05T09:16:24.007Z,2.92
2023-04-05T09:18:51.644Z,3.07
2023-04-05T09:21:20.570Z,3.18
2023-04-05T09:23:55.843Z,3.24
2023-04-05T09:26:24.436Z,3.28
2023-04-05T09:28:52.478Z,3.29
2023-04-05T09:31:34.532Z,3.31
2023-04-05T09:34:03.930Z,3.30
2023-04-05T09:36:32.966Z,3.39
2023-04-05T09:39:06.728Z,3.42
2023-04-05T09:41:34.896Z,3.38
2023-04-05T09:44:02.797Z,3.36
2023-04-05T09:46:32.395Z,3.31
2023-04-05T09:49:03.858Z,3.44
2023-04-05T09:51:35.415Z,3.52
2023-04-05T09:54:04.325Z,3.64
2023-04-05T09:56:32.880Z,3.66
2023-04-05T09:59:01.586Z,3.66
2023-04-05T10:01:29.991Z,3.63
2023-04-05T10:03:58.539Z,3.61
2023-04-05T10:06:38.544Z,3.61
2023-04-05T10:09:06.773Z,3.60
2023-04-05T10:11:35.618Z,3.56
2023-04-05T10:14:05.051Z,3.52
2023-04-05T10:16:35.175Z,3.59
2023-04-05T10:19:05.976Z,3.63
2023-04-05T10:21:35.715Z,3.71
2023-04-05T10:24:08.022Z,3.73
2023-04-05T10:26:38.337Z,3.85
2023-04-05T10:29:10.238Z,3.90
2023-04-05T10:31:42.301Z,3.89
2023-04-05T10:34:14.379Z,3.89
2023-04-05T10:36:52.055Z,3.88
2023-04-05T10:39:26.231Z,3.89
2023-04-05T10:41:54.866Z,3.85
2023-04-05T10:44:26.166Z,3.81
2023-04-05T10:46:55.238Z,3.79
2023-04-05T10:49:24.248Z,3.79
2023-04-05T10:51:53.409Z,3.77
2023-04-05T10:54:21.399Z,3.70
2023-04-05T10:56:49.430Z,3.64
2023-04-05T10:59:17.316Z,3.72
2023-04-05T11:01:46.696Z,3.75
2023-04-05T11:04:15.575Z,3.79
2023-04-05T11:06:47.885Z,3.76
2023-04-05T11:09:17.343Z,3.62
2023-04-05T11:11:46.302Z,3.56
2023-04-05T11:14:21.491Z,3.57
2023-04-05T11:16:50.010Z,3.59
2023-04-05T11:19:17.939Z,3.61
2023-04-05T11:21:45.997Z,3.53
2023-04-05T11:24:15.641Z,3.56
2023-04-05T11:26:57.705Z,3.65
2023-04-05T11:29:43.946Z,3.75
2023-04-05T11:32:13.880Z,3.73
2023-04-05T11:34:43.211Z,3.70
2023-04-05T11:37:11.076Z,3.71
2023-04-05T11:39:39.294Z,3.70
2023-04-05T11:42:12.244Z,3.68
2023-04-05T11:44:44.227Z,3.69
2023-04-05T11:47:12.183Z,3.54
2023-04-05T11:49:40.232Z,3.38
2023-04-05T11:52:11.973Z,3.27
2023-04-05T11:54:39.903Z,3.16
2023-04-05T11:57:12.758Z,3.05
2023-04-05T11:59:40.485Z,2.99
2023-04-05T12:02:09.271Z,2.97
2023-04-05T12:04:37.332Z,2.92
2023-04-05T12:07:22.977Z,2.79
2023-04-05T12:10:09.594Z,2.74
2023-04-05T12:12:39.586Z,2.57
2023-04-05T12:15:09.557Z,2.57
2023-04-05T12:17:44.923Z,2.49
2023-04-05T12:20:13.246Z,2.44
2023-04-05T12:22:42.386Z,2.47
2023-04-05T12:25:10.551Z,2.38
2023-04-05T12:27:42.004Z,2.39
2023-04-05T12:30:17.819Z,2.32
2023-04-05T12:32:46.734Z,2.25
2023-04-05T12:35:15.114Z,2.23
2023-04-05T12:37:42.855Z,2.14
2023-04-05T12:40:11.315Z,2.10
2023-04-05T12:42:41.090Z,2.09
2023-04-05T12:45:12.626Z,2.01
2023-04-05T12:47:50.666Z,2.03
2023-04-05T12:50:19.369Z,1.99
2023-04-05T12:52:53.725Z,1.94
2023-04-05T12:55:22.214Z,1.95
2023-04-05T12:57:59.611Z,1.91
2023-04-05T13:00:28.452Z,1.88
2023-04-05T13:02:57.167Z,1.88
2023-04-05T13:05:26.029Z,1.85
2023-04-05T13:07:53.743Z,1.79
2023-04-05T13:10:21.875Z,1.82
2023-04-05T13:12:49.487Z,1.81
2023-04-05T13:15:18.882Z,1.79
2023-04-05T13:17:49.935Z,1.78
2023-04-05T13:20:18.650Z,1.80
2023-04-05T13:22:46.420Z,1.81
2023-04-05T13:25:14.426Z,1.83
2023-04-05T13:27:42.218Z,1.81
2023-04-05T13:30:10.312Z,1.83
2023-04-05T13:32:39.631Z,1.80
2023-04-05T13:35:07.833Z,1.80
2023-04-05T13:37:35.894Z,1.80
2023-04-05T13:40:03.524Z,1.76
2023-04-05T13:42:31.142Z,1.74
2023-04-05T13:44:58.777Z,1.78
2023-04-05T13:47:26.483Z,1.78
2023-04-05T13:49:55.587Z,1.78
2023-04-05T13:52:23.210Z,1.73
2023-04-05T13:55:03.273Z,1.76
2023-04-05T13:57:31.874Z,1.75
2023-04-05T13:59:59.925Z,1.72
2023-04-05T14:02:28.056Z,1.75
2023-04-05T14:04:57.314Z,1.65
2023-04-05T14:07:25.349Z,1.60
2023-04-05T14:09:53.008Z,1.60
2023-04-05T14:12:20.778Z,1.59
2023-04-05T14:14:48.504Z,1.59
2023-04-05T14:17:16.247Z,1.60
2023-04-05T14:19:44.069Z,1.56
2023-04-05T14:22:13.235Z,1.56
2023-04-05T14:24:40.951Z,1.55
2023-04-05T14:27:08.950Z,1.58
2023-04-05T14:29:36.767Z,1.57
2023-04-05T14:32:04.730Z,1.60
2023-04-05T14:34:33.819Z,1.61
2023-04-05T14:37:04.133Z,1.58
2023-04-05T14:39:33.392Z,1.54
2023-04-05T14:42:01.337Z,1.56
2023-04-05T14:44:29.112Z,1.56
2023-04-05T14:46:57.012Z,1.50
2023-04-05T14:49:24.751Z,1.45
2023-04-05T14:51:52.582Z,1.49
2023-04-05T14:54:20.411Z,1.43
2023-04-05T14:56:49.499Z,1.43
2023-04-05T14:59:17.371Z,1.44
2023-04-05T15:01:46.998Z,1.45
2023-04-05T15:04:14.798Z,1.43
2023-04-05T15:06:42.712Z,1.41
2023-04-05T15:09:10.599Z,1.39
2023-04-05T15:11:39.350Z,1.41
2023-04-05T15:14:15.433Z,1.38
2023-04-05T15:16:49.099Z,1.44
2023-04-05T15:19:17.593Z,1.43
2023-04-05T15:21:45.927Z,1.41
2023-04-05T15:24:13.764Z,1.45
2023-04-05T15:26:41.891Z,1.47
2023-04-05T15:29:11.114Z,1.47
2023-04-05T15:31:39.547Z,1.46
2023-04-05T15:34:08.488Z,1.47
2023-04-05T15:36:36.895Z,1.45
2023-04-05T15:39:05.422Z,1.40
2023-04-05T15:41:34.469Z,1.42
2023-04-05T15:44:03.611Z,1.42
2023-04-05T15:46:33.218Z,1.42
2023-04-05T15:49:01.285Z,1.38
2023-04-05T15:51:29.356Z,1.38
2023-04-05T15:53:57.140Z,1.35
2023-04-05T15:56:24.844Z,1.39
2023-04-05T15:58:52.734Z,1.37
2023-04-05T16:01:20.572Z,1.34
2023-04-05T16:03:52.594Z,1.34
2023-04-05T16:06:22.087Z,1.34
2023-04-05T16:08:49.886Z,1.35
2023-04-05T16:11:17.572Z,1.35
2023-04-05T16:13:45.403Z,1.32
2023-04-05T16:16:20.430Z,1.30
2023-04-05T16:18:57.186Z,1.34
2023-04-05T16:21:24.896Z,1.33
2023-04-05T16:23:52.716Z,1.34
2023-04-05T16:26:20.415Z,1.30
2023-04-05T16:28:48.198Z,1.31
2023-04-05T16:31:15.948Z,1.29
2023-04-05T16:33:43.769Z,1.29
2023-04-05T16:36:12.993Z,1.31
2023-04-05T16:38:41.734Z,1.26
2023-04-05T16:41:09.472Z,1.32
2023-04-05T16:43:37.256Z,1.34
2023-04-05T16:46:05.046Z,1.33
2023-04-05T16:48:32.911Z,1.36
2023-04-05T16:51:00.872Z,1.36
2023-04-05T16:53:30.832Z,1.35
2023-04-05T16:55:58.675Z,1.33
2023-04-05T16:58:26.417Z,1.34
2023-04-05T17:00:58.706Z,1.31
2023-04-05T17:03:27.400Z,1.31
2023-04-05T17:05:55.700Z,1.32
2023-04-05T17:08:23.469Z,1.31
2023-04-05T17:10:52.789Z,1.30
2023-04-05T17:13:20.605Z,1.31
2023-04-05T17:15:49.311Z,1.31
2023-04-05T17:18:17.089Z,1.29
2023-04-05T17:20:44.860Z,1.32
2023-04-05T17:23:12.598Z,1.30
2023-04-05T17:25:40.383Z,1.32
2023-04-05T17:28:09.771Z,1.29
2023-04-05T17:30:37.795Z,1.28
2023-04-05T17:33:05.670Z,1.31
2023-04-05T17:35:33.556Z,1.29
2023-04-05T17:38:03.395Z,1.30
2023-04-05T17:40:31.940Z,1.27
2023-04-05T17:42:59.759Z,1.27
2023-04-05T17:45:28.969Z,1.29
2023-04-05T17:47:56.891Z,1.28
2023-04-05T17:50:25.012Z,1.28
2023-04-05T17:52:52.894Z,1.29
2023-04-05T17:55:20.606Z,1.25
2023-04-05T17:57:48.320Z,1.24
2023-04-05T18:00:16.584Z,1.29
2023-04-05T18:02:46.051Z,1.31
2023-04-05T18:05:13.878Z,1.32
2023-04-05T18:07:42.543Z,1.28
2023-04-05T18:10:10.750Z,1.31
2023-04-05T18:12:38.447Z,1.32
2023-04-05T18:15:06.540Z,1.34
2023-04-05T18:17:34.361Z,1.31
2023-04-05T18:20:03.663Z,1.33
2023-04-05T18:22:32.469Z,1.35
2023-04-05T18:25:00.272Z,1.35
2023-04-05T18:27:28.926Z,1.33
2023-04-05T18:29:56.720Z,1.32
2023-04-05T18:32:24.553Z,1.32
2023-04-05T18:34:52.447Z,1.34
2023-04-05T18:37:21.620Z,1.34
2023-04-05T18:39:49.357Z,1.37
2023-04-05T18:42:17.417Z,1.36
2023-04-05T18:44:45.581Z,1.34
2023-04-05T18:47:13.399Z,1.35
2023-04-05T18:49:41.303Z,1.36
2023-04-05T18:52:10.235Z,1.35
2023-04-05T18:54:39.989Z,1.35
2023-04-05T18:57:08.284Z,1.35
2023-04-05T18:59:36.050Z,1.37
2023-04-05T19:02:05.140Z,1.38
2023-04-05T19:04:33.001Z,1.38
2023-04-05T19:07:00.726Z,1.38
2023-04-05T19:09:28.587Z,1.40
2023-04-05T19:11:57.748Z,1.40
2023-04-05T19:14:25.633Z,1.40
2023-04-05T19:16:53.427Z,1.40
2023-04-05T19:19:21.221Z,1.38
2023-04-05T19:21:48.984Z,1.39
2023-04-05T19:24:16.826Z,1.37
2023-04-05T19:26:45.358Z,1.31
2023-04-05T19:29:14.425Z,1.26
2023-04-05T19:31:42.185Z,1.17
2023-04-05T19:34:10.057Z,1.18
2023-04-05T19:36:38.575Z,1.12
2023-04-05T19:39:07.023Z,1.01
2023-04-05T19:41:35.055Z,0.96
2023-04-05T19:44:03.153Z,0.95
2023-04-05T19:46:33.701Z,0.95
2023-04-05T19:49:06.782Z,0.96
2023-04-05T19:51:35.835Z,0.97
2023-04-05T19:54:08.929Z,0.98
2023-04-05T19:56:37.514Z,0.90
2023-04-05T19:59:15.788Z,0.89
2023-04-05T20:01:47.248Z,0.85
2023-04-05T20:04:17.100Z,0.83
2023-04-05T20:06:48.924Z,0.77
2023-04-05T20:09:18.295Z,0.78
2023-04-05T20:11:50.318Z,0.76
2023-04-05T20:14:18.127Z,0.73
2023-04-05T20:16:49.632Z,0.68
2023-04-05T20:19:17.528Z,0.61
2023-04-05T20:21:45.671Z,0.54
2023-04-05T20:24:17.369Z,0.48
2023-04-05T20:26:46.033Z,0.43
2023-04-05T20:29:16.916Z,0.40
2023-04-05T20:31:44.990Z,0.30
2023-04-05T20:34:15.211Z,0.27
2023-04-05T20:36:46.118Z,0.19
2023-04-05T20:39:13.874Z,0.10
2023-04-05T20:41:41.569Z,0.09
2023-04-05T20:44:09.267Z,0.11
2023-04-05T20:46:37.088Z,0.09
2023-04-05T20:49:04.935Z,0.08
2023-04-05T20:51:34.186Z,0.09
2023-04-05T20:54:02.298Z,-0.05
2023-04-05T20:56:30.406Z,-0.08
2023-04-05T20:58:58.162Z,-0.14
2023-04-05T21:01:27.147Z,-0.20
2023-04-05T21:03:55.005Z,-0.27
2023-04-05T21:06:22.766Z,-0.40
2023-04-05T21:08:51.950Z,-0.44
2023-04-05T21:11:19.648Z,-0.50
2023-04-05T21:13:47.405Z,-0.59
2023-04-05T21:16:15.361Z,-0.67
2023-04-05T21:18:43.237Z,-0.73
2023-04-05T21:21:10.935Z,-0.78
2023-04-05T21:23:38.644Z,-0.81
2023-04-05T21:26:07.820Z,-0.77
2023-04-05T21:28:35.493Z,-0.73
2023-04-05T21:31:03.227Z,-0.68
2023-04-05T21:33:31.116Z,-0.62
2023-04-05T21:35:58.979Z,-0.50
2023-04-05T21:38:27.210Z,-0.49
2023-04-05T21:40:55.513Z,-0.49
2023-04-05T21:43:24.818Z,-0.46
2023-04-05T21:45:52.990Z,-0.40
2023-04-05T21:48:20.844Z,-0.35
2023-04-05T21:50:48.662Z,-0.31
2023-04-05T21:53:16.411Z,-0.24
2023-04-05T21:55:44.183Z,-0.15
2023-04-05T21:58:12.002Z,-0.16
2023-04-05T22:00:41.214Z,-0.14
2023-04-05T22:03:09.007Z,-0.13
2023-04-05T22:05:38.874Z,-0.12
2023-04-05T22:08:08.188Z,-0.08
2023-04-05T22:10:37.583Z,-0.03
2023-04-05T22:13:05.435Z,-0.04
2023-04-05T22:15:33.144Z,-0.01
2023-04-05T22:18:02.286Z,0.02
2023-04-05T22:20:30.131Z,-0.01
2023-04-05T22:22:57.893Z,0.00
2023-04-05T22:25:26.421Z,0.03
2023-04-05T22:27:59.583Z,0.07
2023-04-05T22:30:28.261Z,0.08
2023-04-05T22:32:56.334Z,0.07
2023-04-05T22:35:25.683Z,0.06
2023-04-05T22:37:53.507Z,-0.01
2023-04-05T22:40:27.031Z,-0.03
2023-04-05T22:42:54.891Z,-0.06
2023-04-05T22:45:22.721Z,-0.03
2023-04-05T22:47:50.541Z,-0.06
2023-04-05T22:50:18.466Z,-0.03
2023-04-05T22:52:47.641Z,-0.07
2023-04-05T22:55:15.650Z,-0.08
2023-04-05T22:57:43.407Z,-0.06
2023-04-05T23:00:12.286Z,-0.02
2023-04-05T23:02:40.066Z,-0.02
2023-04-05T23:05:08.201Z,0.02
2023-04-05T23:07:36.002Z,-0.01
2023-04-05T23:10:05.410Z,-0.01
2023-04-05T23:12:33.225Z,-0.03
2023-04-05T23:15:01.000Z,-0.03
2023-04-05T23:17:28.856Z,-0.03
2023-04-05T23:19:56.641Z,-0.12
2023-04-05T23:22:24.398Z,-0.12
2023-04-05T23:24:52.139Z,-0.11
2023-04-05T23:27:22.881Z,-0.12
2023-04-05T23:29:50.611Z,-0.15
2023-04-05T23:32:18.307Z,-0.13
2023-04-05T23:34:46.285Z,-0.20
2023-04-05T23:37:14.139Z,-0.25
2023-04-05T23:39:42.131Z,-0.22
2023-04-05T23:42:10.166Z,-0.22
2023-04-05T23:44:39.377Z,-0.26
2023-04-05T23:47:07.042Z,-0.28
2023-04-05T23:49:34.777Z,-0.24
2023-04-05T23:52:02.477Z,-0.24
2023-04-05T23:54:30.551Z,-0.20
2023-04-05T23:56:58.514Z,-0.25
2023-04-05T23:59:26.594Z,-0.22
